sensor_id;sensor_type;location;lat;lon;timestamp;pressure;altitude;pressure_sealevel;temperature;humidity
79221;BME280;72175;52.118;5.406;2024-02-21T00:00:29;102238.75;;;13.40;65.62
79221;BME280;72175;52.118;5.406;2024-02-21T00:02:55;102227.25;;;13.40;65.52
79221;BME280;72175;52.118;5.406;2024-02-21T00:05:26;102228.22;;;13.39;65.88
79221;BME280;72175;52.118;5.406;2024-02-21T00:07:52;102224.47;;;13.41;65.91
79221;BME280;72175;52.118;5.406;2024-02-21T00:10:19;102223.63;;;13.41;66.14
79221;BME280;72175;52.118;5.406;2024-02-21T00:12:45;102206.84;;;13.40;65.72
79221;BME280;72175;52.118;5.406;2024-02-21T00:15:12;102190.88;;;13.40;65.56
79221;BME280;72175;52.118;5.406;2024-02-21T00:17:39;102202.47;;;13.39;65.72
79221;BME280;72175;52.118;5.406;2024-02-21T00:20:06;102200.66;;;13.40;65.59
79221;BME280;72175;52.118;5.406;2024-02-21T00:22:33;102191.84;;;13.39;65.55
79221;BME280;72175;52.118;5.406;2024-02-21T00:25:00;102193.66;;;13.39;65.92
79221;BME280;72175;52.118;5.406;2024-02-21T00:27:26;102198.97;;;13.39;65.67
79221;BME280;72175;52.118;5.406;2024-02-21T00:29:54;102201.63;;;13.39;65.90
79221;BME280;72175;52.118;5.406;2024-02-21T00:32:20;102198.97;;;13.39;65.67
79221;BME280;72175;52.118;5.406;2024-02-21T00:34:47;102194.50;;;13.39;65.81
79221;BME280;72175;52.118;5.406;2024-02-21T00:37:13;102192.69;;;13.40;65.63
79221;BME280;72175;52.118;5.406;2024-02-21T00:39:40;102196.31;;;13.39;65.68
79221;BME280;72175;52.118;5.406;2024-02-21T00:42:08;102191.84;;;13.39;65.84
79221;BME280;72175;52.118;5.406;2024-02-21T00:44:35;102186.53;;;13.39;65.87
79221;BME280;72175;52.118;5.406;2024-02-21T00:47:01;102184.84;;;13.38;65.82
79221;BME280;72175;52.118;5.406;2024-02-21T00:49:28;102178.56;;;13.39;65.81
79221;BME280;72175;52.118;5.406;2024-02-21T00:51:54;102182.06;;;13.40;65.82
79221;BME280;72175;52.118;5.406;2024-02-21T00:54:25;102192.81;;;13.38;65.81
79221;BME280;72175;52.118;5.406;2024-02-21T00:56:59;102184.84;;;13.38;65.62
79221;BME280;72175;52.118;5.406;2024-02-21T00:59:25;102184.84;;;13.38;65.91
79221;BME280;72175;52.118;5.406;2024-02-21T01:01:51;102194.50;;;13.39;65.94
79221;BME280;72175;52.118;5.406;2024-02-21T01:04:18;102201.63;;;13.39;65.66
79221;BME280;72175;52.118;5.406;2024-02-21T01:06:45;102216.75;;;13.38;65.94
79221;BME280;72175;52.118;5.406;2024-02-21T01:09:11;102212.41;;;13.37;65.88
79221;BME280;72175;52.118;5.406;2024-02-21T01:11:38;102211.44;;;13.38;65.85
79221;BME280;72175;52.118;5.406;2024-02-21T01:14:04;102209.63;;;13.39;65.62
79221;BME280;72175;52.118;5.406;2024-02-21T01:16:31;102198.13;;;13.38;66.01
79221;BME280;72175;52.118;5.406;2024-02-21T01:18:57;102197.28;;;13.38;65.69
79221;BME280;72175;52.118;5.406;2024-02-21T01:21:24;102196.44;;;13.37;65.68
79221;BME280;72175;52.118;5.406;2024-02-21T01:23:50;102193.78;;;13.37;65.89
79221;BME280;72175;52.118;5.406;2024-02-21T01:26:17;102199.94;;;13.38;65.83
79221;BME280;72175;52.118;5.406;2024-02-21T01:28:44;102197.28;;;13.38;65.86
79221;BME280;72175;52.118;5.406;2024-02-21T01:31:11;102191.13;;;13.37;65.97
79221;BME280;72175;52.118;5.406;2024-02-21T01:33:37;102177.84;;;13.37;65.56
79221;BME280;72175;52.118;5.406;2024-02-21T01:36:05;102183.16;;;13.37;65.73
79221;BME280;72175;52.118;5.406;2024-02-21T01:38:34;102173.34;;;13.38;65.53
79221;BME280;72175;52.118;5.406;2024-02-21T01:41:01;102175.16;;;13.37;65.51
79221;BME280;72175;52.118;5.406;2024-02-21T01:43:29;102178.69;;;13.38;65.46
79221;BME280;72175;52.118;5.406;2024-02-21T01:45:56;102167.19;;;13.37;65.66
79221;BME280;72175;52.118;5.406;2024-02-21T01:48:23;102159.22;;;13.37;65.51
79221;BME280;72175;52.118;5.406;2024-02-21T01:50:54;102159.22;;;13.37;65.51
79221;BME280;72175;52.118;5.406;2024-02-21T01:53:23;102151.25;;;13.37;65.74
79221;BME280;72175;52.118;5.406;2024-02-21T01:55:49;102145.94;;;13.37;65.82
79221;BME280;72175;52.118;5.406;2024-02-21T01:58:17;102149.56;;;13.36;65.67
79221;BME280;72175;52.118;5.406;2024-02-21T02:00:47;102150.41;;;13.37;65.62
79221;BME280;72175;52.118;5.406;2024-02-21T02:03:14;102148.59;;;13.37;66.03
79221;BME280;72175;52.118;5.406;2024-02-21T02:05:47;102147.75;;;13.37;65.87
79221;BME280;72175;52.118;5.406;2024-02-21T02:08:15;102146.91;;;13.36;65.75
79221;BME280;72175;52.118;5.406;2024-02-21T02:10:46;102140.72;;;13.36;65.38
79221;BME280;72175;52.118;5.406;2024-02-21T02:13:13;102141.56;;;13.36;65.41
79221;BME280;72175;52.118;5.406;2024-02-21T02:15:43;102136.25;;;13.36;65.74
79221;BME280;72175;52.118;5.406;2024-02-21T02:18:11;102131.78;;;13.37;65.92
79221;BME280;72175;52.118;5.406;2024-02-21T02:20:38;102122.13;;;13.36;65.93
79221;BME280;72175;52.118;5.406;2024-02-21T02:23:23;102118.63;;;13.35;65.48
79221;BME280;72175;52.118;5.406;2024-02-21T02:25:50;102108.84;;;13.36;65.59
79221;BME280;72175;52.118;5.406;2024-02-21T02:28:20;102098.19;;;13.36;65.64
79221;BME280;72175;52.118;5.406;2024-02-21T02:30:48;102105.31;;;13.35;65.65
79221;BME280;72175;52.118;5.406;2024-02-21T02:33:15;102106.19;;;13.36;65.58
79221;BME280;72175;52.118;5.406;2024-02-21T02:35:44;102106.19;;;13.36;65.59
79221;BME280;72175;52.118;5.406;2024-02-21T02:38:10;102102.66;;;13.35;65.50
79221;BME280;72175;52.118;5.406;2024-02-21T02:40:38;102100.00;;;13.35;65.85
79221;BME280;72175;52.118;5.406;2024-02-21T02:43:06;102100.84;;;13.36;65.93
79221;BME280;72175;52.118;5.406;2024-02-21T02:45:33;102108.84;;;13.36;66.27
79221;BME280;72175;52.118;5.406;2024-02-21T02:47:59;102100.97;;;13.34;65.60
79221;BME280;72175;52.118;5.406;2024-02-21T02:50:27;102099.16;;;13.35;65.78
79221;BME280;72175;52.118;5.406;2024-02-21T02:52:54;102094.69;;;13.35;65.88
79221;BME280;72175;52.118;5.406;2024-02-21T02:55:22;102097.34;;;13.35;65.75
79221;BME280;72175;52.118;5.406;2024-02-21T02:57:49;102089.38;;;13.35;65.84
79221;BME280;72175;52.118;5.406;2024-02-21T03:00:16;102083.22;;;13.35;65.79
79221;BME280;72175;52.118;5.406;2024-02-21T03:02:45;102084.91;;;13.36;65.60
79221;BME280;72175;52.118;5.406;2024-02-21T03:05:17;102080.56;;;13.35;65.81
79221;BME280;72175;52.118;5.406;2024-02-21T03:07:44;102063.75;;;13.34;65.76
79221;BME280;72175;52.118;5.406;2024-02-21T03:10:12;102070.88;;;13.34;65.70
79221;BME280;72175;52.118;5.406;2024-02-21T03:12:39;102065.56;;;13.34;65.86
79221;BME280;72175;52.118;5.406;2024-02-21T03:15:06;102064.59;;;13.35;65.77
79221;BME280;72175;52.118;5.406;2024-02-21T03:17:33;102062.78;;;13.35;65.45
79221;BME280;72175;52.118;5.406;2024-02-21T03:20:03;102058.44;;;13.34;65.70
79221;BME280;72175;52.118;5.406;2024-02-21T03:22:38;102058.44;;;13.34;65.47
79221;BME280;72175;52.118;5.406;2024-02-21T03:25:05;102054.94;;;13.34;65.77
79221;BME280;72175;52.118;5.406;2024-02-21T03:27:33;102050.47;;;13.34;65.83
79221;BME280;72175;52.118;5.406;2024-02-21T03:29:59;102046.13;;;13.33;65.55
79221;BME280;72175;52.118;5.406;2024-02-21T03:32:26;102040.81;;;13.33;65.54
79221;BME280;72175;52.118;5.406;2024-02-21T03:34:54;102038.16;;;13.33;65.64
79221;BME280;72175;52.118;5.406;2024-02-21T03:37:21;102033.69;;;13.34;65.60
79221;BME280;72175;52.118;5.406;2024-02-21T03:39:48;102029.19;;;13.34;65.61
79221;BME280;72175;52.118;5.406;2024-02-21T03:42:14;102020.38;;;13.34;65.49
79221;BME280;72175;52.118;5.406;2024-02-21T03:44:41;102020.38;;;13.34;65.56
79221;BME280;72175;52.118;5.406;2024-02-21T03:47:08;102019.53;;;13.33;65.49
79221;BME280;72175;52.118;5.406;2024-02-21T03:49:37;102009.88;;;13.32;65.50
79221;BME280;72175;52.118;5.406;2024-02-21T03:52:04;102014.22;;;13.33;65.64
79221;BME280;72175;52.118;5.406;2024-02-21T03:54:30;102016.88;;;13.33;65.61
79221;BME280;72175;52.118;5.406;2024-02-21T03:56:57;102017.72;;;13.34;65.63
79221;BME280;72175;52.118;5.406;2024-02-21T03:59:23;102013.38;;;13.32;65.80
79221;BME280;72175;52.118;5.406;2024-02-21T04:01:53;102008.91;;;13.33;65.63
79221;BME280;72175;52.118;5.406;2024-02-21T04:04:20;102011.56;;;13.33;65.55
79221;BME280;72175;52.118;5.406;2024-02-21T04:06:48;102008.91;;;13.33;65.64
79221;BME280;72175;52.118;5.406;2024-02-21T04:09:15;102009.88;;;13.32;65.37
79221;BME280;72175;52.118;5.406;2024-02-21T04:11:42;102011.69;;;13.31;65.39
79221;BME280;72175;52.118;5.406;2024-02-21T04:14:08;102012.53;;;13.32;65.61
79221;BME280;72175;52.118;5.406;2024-02-21T04:16:35;102016.03;;;13.32;65.57
79221;BME280;72175;52.118;5.406;2024-02-21T04:19:02;102005.41;;;13.32;65.77
79221;BME280;72175;52.118;5.406;2024-02-21T04:21:28;101993.94;;;13.32;65.77
79221;BME280;72175;52.118;5.406;2024-02-21T04:23:55;101983.28;;;13.32;65.56
79221;BME280;72175;52.118;5.406;2024-02-21T04:26:22;101985.09;;;13.31;65.45
79221;BME280;72175;52.118;5.406;2024-02-21T04:28:48;101987.75;;;13.31;65.71
79221;BME280;72175;52.118;5.406;2024-02-21T04:31:15;101995.75;;;13.31;65.57
79221;BME280;72175;52.118;5.406;2024-02-21T04:33:41;101989.44;;;13.32;65.63
79221;BME280;72175;52.118;5.406;2024-02-21T04:36:08;101985.94;;;13.32;65.68
79221;BME280;72175;52.118;5.406;2024-02-21T04:38:35;101988.59;;;13.32;65.72
79221;BME280;72175;52.118;5.406;2024-02-21T04:41:02;101985.09;;;13.31;65.44
79221;BME280;72175;52.118;5.406;2024-02-21T04:43:28;101975.31;;;13.32;65.70
79221;BME280;72175;52.118;5.406;2024-02-21T04:45:55;101979.78;;;13.31;65.53
79221;BME280;72175;52.118;5.406;2024-02-21T04:48:22;101968.34;;;13.31;65.24
79221;BME280;72175;52.118;5.406;2024-02-21T04:50:48;101960.38;;;13.31;65.71
79221;BME280;72175;52.118;5.406;2024-02-21T04:53:15;101956.88;;;13.30;65.48
79221;BME280;72175;52.118;5.406;2024-02-21T04:55:42;101956.88;;;13.30;65.42
79221;BME280;72175;52.118;5.406;2024-02-21T04:58:08;101963.03;;;13.31;65.65
79221;BME280;72175;52.118;5.406;2024-02-21T05:00:35;101959.53;;;13.30;65.30
79221;BME280;72175;52.118;5.406;2024-02-21T05:03:01;101949.72;;;13.31;65.64
79221;BME280;72175;52.118;5.406;2024-02-21T05:05:29;101953.38;;;13.30;65.79
79221;BME280;72175;52.118;5.406;2024-02-21T05:07:56;101959.53;;;13.30;65.35
79221;BME280;72175;52.118;5.406;2024-02-21T05:10:26;101956.88;;;13.30;65.59
79221;BME280;72175;52.118;5.406;2024-02-21T05:12:52;101959.53;;;13.30;65.90
79221;BME280;72175;52.118;5.406;2024-02-21T05:15:19;101956.03;;;13.30;65.69
79221;BME280;72175;52.118;5.406;2024-02-21T05:17:45;101949.72;;;13.31;65.35
79221;BME280;72175;52.118;5.406;2024-02-21T05:20:12;101942.72;;;13.30;65.78
79221;BME280;72175;52.118;5.406;2024-02-21T05:22:38;101938.25;;;13.30;65.34
79221;BME280;72175;52.118;5.406;2024-02-21T05:25:05;101933.91;;;13.29;65.74
79221;BME280;72175;52.118;5.406;2024-02-21T05:27:32;101933.91;;;13.29;65.78
79221;BME280;72175;52.118;5.406;2024-02-21T05:29:59;101933.78;;;13.31;65.43
79221;BME280;72175;52.118;5.406;2024-02-21T05:32:26;101924.13;;;13.30;65.80
79221;BME280;72175;52.118;5.406;2024-02-21T05:34:52;101917.97;;;13.29;65.33
79221;BME280;72175;52.118;5.406;2024-02-21T05:37:19;101909.16;;;13.29;65.75
79221;BME280;72175;52.118;5.406;2024-02-21T05:39:46;101902.84;;;13.30;65.88
79221;BME280;72175;52.118;5.406;2024-02-21T05:42:12;101902.00;;;13.29;65.51
79221;BME280;72175;52.118;5.406;2024-02-21T05:44:39;101901.16;;;13.29;65.42
79221;BME280;72175;52.118;5.406;2024-02-21T05:47:05;101898.50;;;13.29;65.45
79221;BME280;72175;52.118;5.406;2024-02-21T05:49:36;101884.38;;;13.28;65.60
79221;BME280;72175;52.118;5.406;2024-02-21T05:52:04;101884.38;;;13.28;65.44
79221;BME280;72175;52.118;5.406;2024-02-21T05:54:32;101869.28;;;13.29;65.59
79221;BME280;72175;52.118;5.406;2024-02-21T05:56:59;101873.75;;;13.28;65.67
79221;BME280;72175;52.118;5.406;2024-02-21T05:59:25;101876.41;;;13.28;65.33
79221;BME280;72175;52.118;5.406;2024-02-21T06:01:58;101876.41;;;13.28;65.41
79221;BME280;72175;52.118;5.406;2024-02-21T06:04:25;101872.91;;;13.28;65.77
79221;BME280;72175;52.118;5.406;2024-02-21T06:06:52;101869.41;;;13.27;65.76
79221;BME280;72175;52.118;5.406;2024-02-21T06:09:18;101870.25;;;13.28;65.80
79221;BME280;72175;52.118;5.406;2024-02-21T06:11:45;101868.56;;;13.27;65.71
79221;BME280;72175;52.118;5.406;2024-02-21T06:14:12;101864.09;;;13.27;65.77
79221;BME280;72175;52.118;5.406;2024-02-21T06:16:39;101862.41;;;13.26;65.50
79221;BME280;72175;52.118;5.406;2024-02-21T06:19:06;101857.94;;;13.27;65.43
79221;BME280;72175;52.118;5.406;2024-02-21T06:21:36;101857.94;;;13.27;65.62
79221;BME280;72175;52.118;5.406;2024-02-21T06:24:03;101864.94;;;13.28;65.43
79221;BME280;72175;52.118;5.406;2024-02-21T06:26:29;101864.22;;;13.26;65.61
79221;BME280;72175;52.118;5.406;2024-02-21T06:28:56;101873.88;;;13.27;65.78
79221;BME280;72175;52.118;5.406;2024-02-21T06:31:23;101871.22;;;13.27;65.54
79221;BME280;72175;52.118;5.406;2024-02-21T06:33:50;101868.56;;;13.27;65.52
79221;BME280;72175;52.118;5.406;2024-02-21T06:36:16;101873.03;;;13.26;65.46
79221;BME280;72175;52.118;5.406;2024-02-21T06:38:43;101876.53;;;13.27;65.44
79221;BME280;72175;52.118;5.406;2024-02-21T06:41:17;101870.38;;;13.26;65.43
79221;BME280;72175;52.118;5.406;2024-02-21T06:43:48;101873.88;;;13.27;65.58
79221;BME280;72175;52.118;5.406;2024-02-21T06:46:25;101873.88;;;13.27;65.64
79221;BME280;72175;52.118;5.406;2024-02-21T06:48:52;101877.50;;;13.26;65.40
79221;BME280;72175;52.118;5.406;2024-02-21T06:51:19;101862.41;;;13.26;65.43
79221;BME280;72175;52.118;5.406;2024-02-21T06:53:46;101860.59;;;13.27;65.39
79221;BME280;72175;52.118;5.406;2024-02-21T06:56:12;101854.56;;;13.25;65.63
79221;BME280;72175;52.118;5.406;2024-02-21T06:58:39;101854.44;;;13.26;65.72
79221;BME280;72175;52.118;5.406;2024-02-21T07:01:06;101856.25;;;13.26;65.30
79221;BME280;72175;52.118;5.406;2024-02-21T07:03:33;101846.44;;;13.26;65.75
79221;BME280;72175;52.118;5.406;2024-02-21T07:05:59;101848.28;;;13.26;65.47
79221;BME280;72175;52.118;5.406;2024-02-21T07:08:27;101851.75;;;13.26;65.67
79221;BME280;72175;52.118;5.406;2024-02-21T07:11:21;101856.25;;;13.26;65.69
79221;BME280;72175;52.118;5.406;2024-02-21T07:13:55;101849.25;;;13.25;65.66
79221;BME280;72175;52.118;5.406;2024-02-21T07:16:33;101850.09;;;13.25;65.52
79221;BME280;72175;52.118;5.406;2024-02-21T07:19:00;101844.63;;;13.27;65.79
79221;BME280;72175;52.118;5.406;2024-02-21T07:21:31;101839.19;;;13.28;65.64
79221;BME280;72175;52.118;5.406;2024-02-21T07:23:58;101839.91;;;13.30;65.68
79221;BME280;72175;52.118;5.406;2024-02-21T07:26:24;101833.59;;;13.31;65.69
79221;BME280;72175;52.118;5.406;2024-02-21T07:28:51;101836.13;;;13.33;65.33
79221;BME280;72175;52.118;5.406;2024-02-21T07:31:17;101823.53;;;13.35;65.75
79221;BME280;72175;52.118;5.406;2024-02-21T07:33:47;101823.41;;;13.37;65.41
79221;BME280;72175;52.118;5.406;2024-02-21T07:40:14;101814.34;;;13.39;65.57
79221;BME280;72175;52.118;5.406;2024-02-21T07:42:59;101809.59;;;13.43;65.75
79221;BME280;72175;52.118;5.406;2024-02-21T07:45:26;101798.00;;;13.44;65.50
79221;BME280;72175;52.118;5.406;2024-02-21T07:47:52;101792.53;;;13.45;65.27
79221;BME280;72175;52.118;5.406;2024-02-21T07:50:19;101782.75;;;13.46;65.68
79221;BME280;72175;52.118;5.406;2024-02-21T07:52:46;101780.09;;;13.46;65.48
79221;BME280;72175;52.118;5.406;2024-02-21T07:55:12;101788.91;;;13.46;65.15
79221;BME280;72175;52.118;5.406;2024-02-21T07:57:39;101777.31;;;13.47;65.68
79221;BME280;72175;52.118;5.406;2024-02-21T08:00:06;101769.34;;;13.47;65.62
79221;BME280;72175;52.118;5.406;2024-02-21T08:02:35;101770.97;;;13.48;65.62
79221;BME280;72175;52.118;5.406;2024-02-21T08:05:01;101778.00;;;13.49;65.23
79221;BME280;72175;52.118;5.406;2024-02-21T08:07:28;101779.66;;;13.50;64.97
79221;BME280;72175;52.118;5.406;2024-02-21T08:09:56;101771.69;;;13.50;65.44
79221;BME280;72175;52.118;5.406;2024-02-21T08:12:25;101780.50;;;13.51;65.13
79221;BME280;72175;52.118;5.406;2024-02-21T08:14:58;101765.41;;;13.51;65.45
79221;BME280;72175;52.118;5.406;2024-02-21T08:17:26;101760.09;;;13.51;65.33
79221;BME280;72175;52.118;5.406;2024-02-21T08:20:02;101761.91;;;13.51;65.35
79221;BME280;72175;52.118;5.406;2024-02-21T08:22:31;101760.78;;;13.53;65.01
79221;BME280;72175;52.118;5.406;2024-02-21T08:24:58;101757.16;;;13.54;65.29
79221;BME280;72175;52.118;5.406;2024-02-21T08:27:25;101753.66;;;13.54;65.22
79221;BME280;72175;52.118;5.406;2024-02-21T08:29:51;101749.19;;;13.54;65.38
79221;BME280;72175;52.118;5.406;2024-02-21T08:32:18;101750.03;;;13.55;65.31
79221;BME280;72175;52.118;5.406;2024-02-21T08:34:44;101743.72;;;13.56;65.40
79221;BME280;72175;52.118;5.406;2024-02-21T08:37:11;101736.47;;;13.58;64.84
79221;BME280;72175;52.118;5.406;2024-02-21T08:39:39;101743.59;;;13.57;65.15
79221;BME280;72175;52.118;5.406;2024-02-21T08:42:07;101730.31;;;13.57;64.85
79221;BME280;72175;52.118;5.406;2024-02-21T08:44:34;101735.50;;;13.59;65.06
79221;BME280;72175;52.118;5.406;2024-02-21T08:47:00;101725.69;;;13.59;65.11
79221;BME280;72175;52.118;5.406;2024-02-21T08:49:30;101719.53;;;13.59;65.33
79221;BME280;72175;52.118;5.406;2024-02-21T08:52:01;101707.09;;;13.59;65.44
79221;BME280;72175;52.118;5.406;2024-02-21T08:54:28;101698.25;;;13.59;65.05
79221;BME280;72175;52.118;5.406;2024-02-21T08:56:58;101706.25;;;13.59;65.42
79221;BME280;72175;52.118;5.406;2024-02-21T08:59:24;101706.09;;;13.60;65.29
79221;BME280;72175;52.118;5.406;2024-02-21T09:01:52;101702.47;;;13.61;64.89
79221;BME280;72175;52.118;5.406;2024-02-21T09:04:19;101707.78;;;13.61;65.19
79221;BME280;72175;52.118;5.406;2024-02-21T09:07:04;101706.81;;;13.62;64.95
79221;BME280;72175;52.118;5.406;2024-02-21T09:09:30;101703.19;;;13.63;65.28
79221;BME280;72175;52.118;5.406;2024-02-21T09:11:59;101701.50;;;13.62;65.04
79221;BME280;72175;52.118;5.406;2024-02-21T09:14:33;101698.84;;;13.62;64.92
79221;BME280;72175;52.118;5.406;2024-02-21T09:16:59;101688.19;;;13.62;64.97
79221;BME280;72175;52.118;5.406;2024-02-21T09:19:26;101689.03;;;13.63;65.24
79221;BME280;72175;52.118;5.406;2024-02-21T09:21:53;101689.03;;;13.63;64.92
79221;BME280;72175;52.118;5.406;2024-02-21T09:24:19;101689.88;;;13.63;64.74
79221;BME280;72175;52.118;5.406;2024-02-21T09:26:46;101680.06;;;13.64;64.86
79221;BME280;72175;52.118;5.406;2024-02-21T09:29:13;101680.91;;;13.64;64.78
79221;BME280;72175;52.118;5.406;2024-02-21T09:31:39;101674.59;;;13.65;64.71
79221;BME280;72175;52.118;5.406;2024-02-21T09:34:06;101670.25;;;13.64;64.85
79221;BME280;72175;52.118;5.406;2024-02-21T09:36:32;101668.31;;;13.66;65.00
79221;BME280;72175;52.118;5.406;2024-02-21T09:38:59;101663.97;;;13.65;64.88
79221;BME280;72175;52.118;5.406;2024-02-21T09:41:27;101653.19;;;13.67;64.93
79221;BME280;72175;52.118;5.406;2024-02-21T09:43:56;101656.81;;;13.66;64.65
79221;BME280;72175;52.118;5.406;2024-02-21T09:49:31;101635.56;;;13.66;64.88
79221;BME280;72175;52.118;5.406;2024-02-21T09:52:04;101621.41;;;13.65;64.70
79221;BME280;72175;52.118;5.406;2024-02-21T09:54:33;101615.97;;;13.67;64.52
79221;BME280;72175;52.118;5.406;2024-02-21T09:57:00;101612.47;;;13.66;64.96
79221;BME280;72175;52.118;5.406;2024-02-21T09:59:27;101599.16;;;13.66;64.60
79221;BME280;72175;52.118;5.406;2024-02-21T10:01:54;101593.00;;;13.66;64.88
79221;BME280;72175;52.118;5.406;2024-02-21T10:04:21;101592.84;;;13.68;64.66
79221;BME280;72175;52.118;5.406;2024-02-21T10:06:48;101590.19;;;13.68;64.95
79221;BME280;72175;52.118;5.406;2024-02-21T10:09:26;101581.09;;;13.70;64.60
79221;BME280;72175;52.118;5.406;2024-02-21T10:11:55;101578.44;;;13.70;65.03
79221;BME280;72175;52.118;5.406;2024-02-21T10:14:22;101559.84;;;13.70;65.30
79221;BME280;72175;52.118;5.406;2024-02-21T10:16:55;101573.00;;;13.72;65.17
79221;BME280;72175;52.118;5.406;2024-02-21T10:19:22;101558.72;;;13.73;64.87
79221;BME280;72175;52.118;5.406;2024-02-21T10:24:28;101560.53;;;13.72;65.27
79221;BME280;72175;52.118;5.406;2024-02-21T10:27:06;101552.41;;;13.74;65.06
79221;BME280;72175;52.118;5.406;2024-02-21T10:29:35;101543.59;;;13.73;65.07
79221;BME280;72175;52.118;5.406;2024-02-21T10:34:34;101517.00;;;13.73;64.78
79221;BME280;72175;52.118;5.406;2024-02-21T10:37:08;101509.88;;;13.74;65.14
79221;BME280;72175;52.118;5.406;2024-02-21T10:39:41;101528.34;;;13.75;65.23
79221;BME280;72175;52.118;5.406;2024-02-21T10:42:11;101518.53;;;13.76;64.91
79221;BME280;72175;52.118;5.406;2024-02-21T10:44:40;101506.94;;;13.77;65.05
79221;BME280;72175;52.118;5.406;2024-02-21T10:47:09;101493.63;;;13.77;65.13
79221;BME280;72175;52.118;5.406;2024-02-21T10:49:39;101493.63;;;13.77;64.94
79221;BME280;72175;52.118;5.406;2024-02-21T10:54:48;101482.00;;;13.78;64.86
79221;BME280;72175;52.118;5.406;2024-02-21T10:57:19;101459.88;;;13.77;65.12
79221;BME280;72175;52.118;5.406;2024-02-21T10:59:48;101440.44;;;13.77;64.76
79221;BME280;72175;52.118;5.406;2024-02-21T11:02:15;101432.44;;;13.77;64.85
79221;BME280;72175;52.118;5.406;2024-02-21T11:04:43;101403.19;;;13.77;64.86
79221;BME280;72175;52.118;5.406;2024-02-21T11:07:10;101401.38;;;13.77;64.97
79221;BME280;72175;52.118;5.406;2024-02-21T11:09:37;101411.16;;;13.77;64.72
79221;BME280;72175;52.118;5.406;2024-02-21T11:12:05;101412.00;;;13.77;64.71
79221;BME280;72175;52.118;5.406;2024-02-21T11:14:33;101467.72;;;13.79;64.96
79221;BME280;72175;52.118;5.406;2024-02-21T11:17:20;101481.03;;;13.79;64.82
79221;BME280;72175;52.118;5.406;2024-02-21T11:19:53;101475.69;;;13.79;64.50
79221;BME280;72175;52.118;5.406;2024-02-21T11:22:20;101470.38;;;13.79;64.64
79221;BME280;72175;52.118;5.406;2024-02-21T11:24:51;101472.06;;;13.80;64.62
79221;BME280;72175;52.118;5.406;2024-02-21T11:27:22;101466.75;;;13.80;64.85
79221;BME280;72175;52.118;5.406;2024-02-21T11:29:56;101454.44;;;13.79;64.92
79221;BME280;72175;52.118;5.406;2024-02-21T11:32:25;101449.94;;;13.79;64.99
79221;BME280;72175;52.118;5.406;2024-02-21T11:34:58;101443.78;;;13.79;64.54
79221;BME280;72175;52.118;5.406;2024-02-21T11:37:34;101450.78;;;13.80;64.95
79221;BME280;72175;52.118;5.406;2024-02-21T11:40:01;101440.16;;;13.80;64.80
79221;BME280;72175;52.118;5.406;2024-02-21T11:42:30;101422.50;;;13.79;64.51
79221;BME280;72175;52.118;5.406;2024-02-21T11:44:57;101414.53;;;13.79;64.78
79221;BME280;72175;52.118;5.406;2024-02-21T11:47:24;101411.03;;;13.78;64.69
79221;BME280;72175;52.118;5.406;2024-02-21T11:49:51;101395.91;;;13.79;64.74
79221;BME280;72175;52.118;5.406;2024-02-21T11:52:26;101391.44;;;13.79;64.80
79221;BME280;72175;52.118;5.406;2024-02-21T11:54:55;101388.78;;;13.79;64.51
79221;BME280;72175;52.118;5.406;2024-02-21T11:57:24;101380.78;;;13.79;64.49
79221;BME280;72175;52.118;5.406;2024-02-21T11:59:51;101352.38;;;13.80;64.66
79221;BME280;72175;52.118;5.406;2024-02-21T12:02:26;101339.06;;;13.80;64.52
79221;BME280;72175;52.118;5.406;2024-02-21T12:04:52;101325.78;;;13.80;64.78
79221;BME280;72175;52.118;5.406;2024-02-21T12:07:21;101316.94;;;13.79;64.75
79221;BME280;72175;52.118;5.406;2024-02-21T12:09:50;101305.28;;;13.80;64.27
79221;BME280;72175;52.118;5.406;2024-02-21T12:12:19;101287.69;;;13.79;64.70
79221;BME280;72175;52.118;5.406;2024-02-21T12:14:46;101273.56;;;13.79;64.76
79221;BME280;72175;52.118;5.406;2024-02-21T12:17:12;101271.56;;;13.81;64.74
79221;BME280;72175;52.118;5.406;2024-02-21T12:19:39;101273.22;;;13.82;64.61
79221;BME280;72175;52.118;5.406;2024-02-21T12:22:06;101276.88;;;13.81;64.45
79221;BME280;72175;52.118;5.406;2024-02-21T12:24:35;101261.75;;;13.81;64.40
79221;BME280;72175;52.118;5.406;2024-02-21T12:27:02;101262.59;;;13.82;64.33
79221;BME280;72175;52.118;5.406;2024-02-21T12:29:30;101256.44;;;13.81;64.48
79221;BME280;72175;52.118;5.406;2024-02-21T12:31:56;101250.97;;;13.83;64.53
79221;BME280;72175;52.118;5.406;2024-02-21T12:34:23;101225.34;;;13.82;64.49
79221;BME280;72175;52.118;5.406;2024-02-21T12:37:10;101221.84;;;13.81;64.83
79221;BME280;72175;52.118;5.406;2024-02-21T12:39:39;101208.41;;;13.83;64.65
79221;BME280;72175;52.118;5.406;2024-02-21T12:42:05;101209.25;;;13.83;64.70
79221;BME280;72175;52.118;5.406;2024-02-21T12:44:32;101208.41;;;13.83;64.24
79221;BME280;72175;52.118;5.406;2024-02-21T12:46:59;101195.13;;;13.83;64.35
79221;BME280;72175;52.118;5.406;2024-02-21T12:49:25;101184.31;;;13.84;64.74
79221;BME280;72175;52.118;5.406;2024-02-21T12:51:55;101176.50;;;13.83;64.58
79221;BME280;72175;52.118;5.406;2024-02-21T12:54:22;101171.03;;;13.84;64.66
79221;BME280;72175;52.118;5.406;2024-02-21T12:56:49;101161.38;;;13.83;64.74
79221;BME280;72175;52.118;5.406;2024-02-21T12:59:16;101149.75;;;13.84;64.29
79221;BME280;72175;52.118;5.406;2024-02-21T13:01:43;101140.94;;;13.84;64.46
79221;BME280;72175;52.118;5.406;2024-02-21T13:04:18;101144.44;;;13.84;64.41
79221;BME280;72175;52.118;5.406;2024-02-21T13:06:50;101127.47;;;13.85;64.56
79221;BME280;72175;52.118;5.406;2024-02-21T13:09:21;101118.66;;;13.85;64.70